sensor_id;sensor_type;location;lat;lon;timestamp;pressure;altitude;pressure_sealevel;temperature
71630;BMP280;59479;51.902;8.212;2023-02-01T00:00:45;101238.75;;;6.14
71630;BMP280;59479;51.902;8.212;2023-02-01T00:03:10;101253.75;;;6.17
71630;BMP280;59479;51.902;8.212;2023-02-01T00:05:37;101242.81;;;6.12
71630;BMP280;59479;51.902;8.212;2023-02-01T00:08:03;101231.34;;;6.19
71630;BMP280;59479;51.902;8.212;2023-02-01T00:10:28;101226.16;;;6.11
71630;BMP280;59479;51.902;8.212;2023-02-01T00:12:54;101222.66;;;6.05
71630;BMP280;59479;51.902;8.212;2023-02-01T00:15:19;101221.84;;;6.06
71630;BMP280;59479;51.902;8.212;2023-02-01T00:17:45;101212.81;;;6.09
71630;BMP280;59479;51.902;8.212;2023-02-01T00:20:11;101220.34;;;6.12
71630;BMP280;59479;51.902;8.212;2023-02-01T00:22:36;101222.78;;;6.09
71630;BMP280;59479;51.902;8.212;2023-02-01T00:25:02;101226.78;;;6.03
71630;BMP280;59479;51.902;8.212;2023-02-01T00:27:27;101235.91;;;6.04
71630;BMP280;59479;51.902;8.212;2023-02-01T00:29:54;101236.75;;;6.03
71630;BMP280;59479;51.902;8.212;2023-02-01T00:32:20;101228.53;;;6.07
71630;BMP280;59479;51.902;8.212;2023-02-01T00:34:46;101225.91;;;6.02
71630;BMP280;59479;51.902;8.212;2023-02-01T00:37:11;101215.91;;;6.01
71630;BMP280;59479;51.902;8.212;2023-02-01T00:39:37;101213.41;;;6.01
71630;BMP280;59479;51.902;8.212;2023-02-01T00:42:02;101200.38;;;6.12
71630;BMP280;59479;51.902;8.212;2023-02-01T00:44:27;101200.16;;;6.03
71630;BMP280;59479;51.902;8.212;2023-02-01T00:46:53;101206.03;;;6.05
71630;BMP280;59479;51.902;8.212;2023-02-01T00:49:18;101191.88;;;6.04
71630;BMP280;59479;51.902;8.212;2023-02-01T00:51:43;101202.66;;;6.03
71630;BMP280;59479;51.902;8.212;2023-02-01T00:54:09;101196.69;;;5.98
71630;BMP280;59479;51.902;8.212;2023-02-01T00:56:34;101204.25;;;6.01
71630;BMP280;59479;51.902;8.212;2023-02-01T00:59:00;101198.44;;;6.02
71630;BMP280;59479;51.902;8.212;2023-02-01T01:01:26;101198.53;;;6.05
71630;BMP280;59479;51.902;8.212;2023-02-01T01:03:55;101208.41;;;6.01
71630;BMP280;59479;51.902;8.212;2023-02-01T01:06:24;101197.38;;;5.93
71630;BMP280;59479;51.902;8.212;2023-02-01T01:08:53;101202.31;;;5.91
71630;BMP280;59479;51.902;8.212;2023-02-01T01:11:22;101205.88;;;5.99
71630;BMP280;59479;51.902;8.212;2023-02-01T01:13:49;101200.06;;;6.00
71630;BMP280;59479;51.902;8.212;2023-02-01T01:16:14;101194.19;;;5.98
71630;BMP280;59479;51.902;8.212;2023-02-01T01:18:43;101185.97;;;6.01
71630;BMP280;59479;51.902;8.212;2023-02-01T01:21:09;101197.56;;;6.00
71630;BMP280;59479;51.902;8.212;2023-02-01T01:23:36;101189.25;;;6.00
71630;BMP280;59479;51.902;8.212;2023-02-01T01:26:07;101199.28;;;6.01
71630;BMP280;59479;51.902;8.212;2023-02-01T01:28:33;101203.50;;;6.04
71630;BMP280;59479;51.902;8.212;2023-02-01T01:30:59;101187.84;;;6.09
71630;BMP280;59479;51.902;8.212;2023-02-01T01:33:24;101206.19;;;6.11
71630;BMP280;59479;51.902;8.212;2023-02-01T01:35:50;101201.31;;;6.14
71630;BMP280;59479;51.902;8.212;2023-02-01T01:38:15;101201.13;;;6.08
71630;BMP280;59479;51.902;8.212;2023-02-01T01:40:44;101200.34;;;6.09
71630;BMP280;59479;51.902;8.212;2023-02-01T01:43:15;101205.59;;;6.20
71630;BMP280;59479;51.902;8.212;2023-02-01T01:45:41;101212.22;;;6.18
71630;BMP280;59479;51.902;8.212;2023-02-01T01:48:21;101211.66;;;6.29
71630;BMP280;59479;51.902;8.212;2023-02-01T01:50:56;101197.25;;;6.19
71630;BMP280;59479;51.902;8.212;2023-02-01T01:53:33;101196.38;;;6.17
71630;BMP280;59479;51.902;8.212;2023-02-01T01:56:00;101198.25;;;6.26
71630;BMP280;59479;51.902;8.212;2023-02-01T01:58:27;101180.56;;;6.17
71630;BMP280;59479;51.902;8.212;2023-02-01T02:00:54;101178.84;;;6.16
71630;BMP280;59479;51.902;8.212;2023-02-01T02:03:27;101177.28;;;6.19
71630;BMP280;59479;51.902;8.212;2023-02-01T02:05:57;101176.47;;;6.20
71630;BMP280;59479;51.902;8.212;2023-02-01T02:08:25;101172.94;;;6.12
71630;BMP280;59479;51.902;8.212;2023-02-01T02:11:23;101169.66;;;6.13
71630;BMP280;59479;51.902;8.212;2023-02-01T02:14:29;101152.97;;;6.12
71630;BMP280;59479;51.902;8.212;2023-02-01T02:26:25;101136.50;;;6.19
71630;BMP280;59479;51.902;8.212;2023-02-01T02:29:25;101139.53;;;6.07
71630;BMP280;59479;51.902;8.212;2023-02-01T02:39:42;101117.38;;;6.18
71630;BMP280;59479;51.902;8.212;2023-02-01T03:04:26;101094.00;;;6.14
71630;BMP280;59479;51.902;8.212;2023-02-01T03:14:50;101088.16;;;6.15
71630;BMP280;59479;51.902;8.212;2023-02-01T03:17:22;101087.25;;;6.12
71630;BMP280;59479;51.902;8.212;2023-02-01T03:19:51;101098.25;;;6.18
71630;BMP280;59479;51.902;8.212;2023-02-01T03:22:20;101082.69;;;6.28
71630;BMP280;59479;51.902;8.212;2023-02-01T03:24:51;101090.91;;;6.26
71630;BMP280;59479;51.902;8.212;2023-02-01T03:27:26;101083.47;;;6.27
71630;BMP280;59479;51.902;8.212;2023-02-01T03:29:58;101072.50;;;6.21
71630;BMP280;59479;51.902;8.212;2023-02-01T03:32:24;101060.94;;;6.24
71630;BMP280;59479;51.902;8.212;2023-02-01T03:34:50;101069.38;;;6.28
71630;BMP280;59479;51.902;8.212;2023-02-01T03:37:23;101067.34;;;6.13
71630;BMP280;59479;51.902;8.212;2023-02-01T03:40:06;101059.31;;;6.25
71630;BMP280;59479;51.902;8.212;2023-02-01T03:42:37;101056.41;;;6.08
71630;BMP280;59479;51.902;8.212;2023-02-01T03:45:20;101053.56;;;6.28
71630;BMP280;59479;51.902;8.212;2023-02-01T03:47:49;101058.44;;;6.24
71630;BMP280;59479;51.902;8.212;2023-02-01T03:50:19;101055.09;;;6.24
71630;BMP280;59479;51.902;8.212;2023-02-01T03:52:58;101046.91;;;6.28
71630;BMP280;59479;51.902;8.212;2023-02-01T03:55:26;101051.06;;;6.28
71630;BMP280;59479;51.902;8.212;2023-02-01T03:57:59;101040.88;;;6.20
71630;BMP280;59479;51.902;8.212;2023-02-01T04:00:26;101041.72;;;6.20
71630;BMP280;59479;51.902;8.212;2023-02-01T04:02:52;101047.69;;;6.27
71630;BMP280;59479;51.902;8.212;2023-02-01T04:05:18;101039.41;;;6.28
71630;BMP280;59479;51.902;8.212;2023-02-01T04:07:44;101048.53;;;6.27
71630;BMP280;59479;51.902;8.212;2023-02-01T04:10:10;101054.47;;;6.32
71630;BMP280;59479;51.902;8.212;2023-02-01T04:12:36;101045.25;;;6.28
71630;BMP280;59479;51.902;8.212;2023-02-01T04:15:02;101037.00;;;6.32
71630;BMP280;59479;51.902;8.212;2023-02-01T04:17:28;101029.50;;;6.32
71630;BMP280;59479;51.902;8.212;2023-02-01T04:19:53;101033.66;;;6.31
71630;BMP280;59479;51.902;8.212;2023-02-01T04:22:22;101019.63;;;6.36
71630;BMP280;59479;51.902;8.212;2023-02-01T04:24:47;101020.28;;;6.28
71630;BMP280;59479;51.902;8.212;2023-02-01T04:27:12;101025.66;;;6.44
71630;BMP280;59479;51.902;8.212;2023-02-01T04:29:38;101009.66;;;6.36
71630;BMP280;59479;51.902;8.212;2023-02-01T04:32:04;101022.88;;;6.32
71630;BMP280;59479;51.902;8.212;2023-02-01T04:34:30;101026.94;;;6.29
71630;BMP280;59479;51.902;8.212;2023-02-01T04:36:55;101013.66;;;6.30
71630;BMP280;59479;51.902;8.212;2023-02-01T04:39:20;101023.66;;;6.30
71630;BMP280;59479;51.902;8.212;2023-02-01T04:41:45;101008.66;;;6.30
71630;BMP280;59479;51.902;8.212;2023-02-01T04:44:18;101007.91;;;6.34
71630;BMP280;59479;51.902;8.212;2023-02-01T04:46:44;101008.78;;;6.34
71630;BMP280;59479;51.902;8.212;2023-02-01T04:49:10;101015.53;;;6.38
71630;BMP280;59479;51.902;8.212;2023-02-01T04:51:36;101008.91;;;6.40
71630;BMP280;59479;51.902;8.212;2023-02-01T04:54:01;101003.06;;;6.40
71630;BMP280;59479;51.902;8.212;2023-02-01T04:56:27;100991.19;;;6.30
71630;BMP280;59479;51.902;8.212;2023-02-01T04:58:52;101004.78;;;6.42
71630;BMP280;59479;51.902;8.212;2023-02-01T05:01:18;100995.69;;;6.44
71630;BMP280;59479;51.902;8.212;2023-02-01T05:03:43;101002.13;;;6.35
71630;BMP280;59479;51.902;8.212;2023-02-01T05:06:09;101007.91;;;6.34
71630;BMP280;59479;51.902;8.212;2023-02-01T05:08:34;101008.09;;;6.41
71630;BMP280;59479;51.902;8.212;2023-02-01T05:10:59;100994.00;;;6.43
71630;BMP280;59479;51.902;8.212;2023-02-01T05:13:28;101009.56;;;6.33
71630;BMP280;59479;51.902;8.212;2023-02-01T05:16:12;101011.69;;;6.17
71630;BMP280;59479;51.902;8.212;2023-02-01T05:18:37;101001.22;;;6.31
71630;BMP280;59479;51.902;8.212;2023-02-01T05:21:03;100998.84;;;6.36
71630;BMP280;59479;51.902;8.212;2023-02-01T05:23:28;100993.84;;;6.36
71630;BMP280;59479;51.902;8.212;2023-02-01T05:25:58;100996.97;;;6.29
71630;BMP280;59479;51.902;8.212;2023-02-01T05:28:23;100987.00;;;6.29
71630;BMP280;59479;51.902;8.212;2023-02-01T05:30:49;100994.59;;;6.33
71630;BMP280;59479;51.902;8.212;2023-02-01T05:33:14;100984.66;;;6.35
71630;BMP280;59479;51.902;8.212;2023-02-01T05:35:39;100983.75;;;6.31
71630;BMP280;59479;51.902;8.212;2023-02-01T05:38:05;100984.50;;;6.28
71630;BMP280;59479;51.902;8.212;2023-02-01T05:40:30;100978.63;;;6.27
71630;BMP280;59479;51.902;8.212;2023-02-01T05:42:55;100988.09;;;6.40
71630;BMP280;59479;51.902;8.212;2023-02-01T05:45:21;100978.63;;;6.27
71630;BMP280;59479;51.902;8.212;2023-02-01T05:47:46;100972.88;;;6.29
71630;BMP280;59479;51.902;8.212;2023-02-01T05:50:11;100973.00;;;6.35
71630;BMP280;59479;51.902;8.212;2023-02-01T05:52:37;100967.97;;;6.32
71630;BMP280;59479;51.902;8.212;2023-02-01T05:55:02;100961.28;;;6.31
71630;BMP280;59479;51.902;8.212;2023-02-01T05:57:28;100967.97;;;6.34
71630;BMP280;59479;51.902;8.212;2023-02-01T05:59:53;100961.44;;;6.39
71630;BMP280;59479;51.902;8.212;2023-02-01T06:02:19;100970.63;;;6.40
71630;BMP280;59479;51.902;8.212;2023-02-01T06:04:45;100977.97;;;6.34
71630;BMP280;59479;51.902;8.212;2023-02-01T06:07:10;100977.09;;;6.32
71630;BMP280;59479;51.902;8.212;2023-02-01T06:09:36;100972.97;;;6.34
71630;BMP280;59479;51.902;8.212;2023-02-01T06:12:02;100971.41;;;6.39
71630;BMP280;59479;51.902;8.212;2023-02-01T06:14:28;100972.34;;;6.44
71630;BMP280;59479;51.902;8.212;2023-02-01T06:16:54;100966.53;;;6.43
71630;BMP280;59479;51.902;8.212;2023-02-01T06:19:21;100958.94;;;6.39
71630;BMP280;59479;51.902;8.212;2023-02-01T06:21:46;100968.16;;;6.41
71630;BMP280;59479;51.902;8.212;2023-02-01T06:24:12;100972.31;;;6.42
71630;BMP280;59479;51.902;8.212;2023-02-01T06:26:38;100977.88;;;6.29
71630;BMP280;59479;51.902;8.212;2023-02-01T06:29:05;100977.28;;;6.39
71630;BMP280;59479;51.902;8.212;2023-02-01T06:31:32;100977.97;;;6.32
71630;BMP280;59479;51.902;8.212;2023-02-01T06:33:57;100975.28;;;6.25
71630;BMP280;59479;51.902;8.212;2023-02-01T06:36:22;100970.44;;;6.31
71630;BMP280;59479;51.902;8.212;2023-02-01T06:38:48;100977.06;;;6.30
71630;BMP280;59479;51.902;8.212;2023-02-01T06:41:13;100978.81;;;6.34
71630;BMP280;59479;51.902;8.212;2023-02-01T06:43:39;100983.59;;;6.26
71630;BMP280;59479;51.902;8.212;2023-02-01T06:46:11;101013.59;;;6.27
71630;BMP280;59479;51.902;8.212;2023-02-01T06:48:36;100999.53;;;6.30
71630;BMP280;59479;51.902;8.212;2023-02-01T06:51:02;101003.81;;;6.36
71630;BMP280;59479;51.902;8.212;2023-02-01T06:53:27;101006.31;;;6.36
71630;BMP280;59479;51.902;8.212;2023-02-01T06:55:55;101012.94;;;6.35
71630;BMP280;59479;51.902;8.212;2023-02-01T06:58:20;101021.94;;;6.28
71630;BMP280;59479;51.902;8.212;2023-02-01T07:00:46;101023.72;;;6.33
71630;BMP280;59479;51.902;8.212;2023-02-01T07:03:11;101017.94;;;6.35
71630;BMP280;59479;51.902;8.212;2023-02-01T07:05:36;101006.97;;;6.29
71630;BMP280;59479;51.902;8.212;2023-02-01T07:08:02;101025.38;;;6.32
71630;BMP280;59479;51.902;8.212;2023-02-01T07:10:27;101024.47;;;6.30
71630;BMP280;59479;51.902;8.212;2023-02-01T07:12:56;101020.50;;;6.38
71630;BMP280;59479;51.902;8.212;2023-02-01T07:15:22;101030.41;;;6.35
71630;BMP280;59479;51.902;8.212;2023-02-01T07:17:47;101021.91;;;6.26
71630;BMP280;59479;51.902;8.212;2023-02-01T07:20:14;101018.81;;;6.37
71630;BMP280;59479;51.902;8.212;2023-02-01T07:22:40;101038.63;;;6.30
71630;BMP280;59479;51.902;8.212;2023-02-01T07:25:05;101040.31;;;6.31
71630;BMP280;59479;51.902;8.212;2023-02-01T07:27:34;101036.97;;;6.30
71630;BMP280;59479;51.902;8.212;2023-02-01T07:29:59;101040.41;;;6.35
71630;BMP280;59479;51.902;8.212;2023-02-01T07:32:27;101040.78;;;6.52
71630;BMP280;59479;51.902;8.212;2023-02-01T07:34:52;101042.06;;;6.35
71630;BMP280;59479;51.902;8.212;2023-02-01T07:37:18;101037.06;;;6.35
71630;BMP280;59479;51.902;8.212;2023-02-01T07:39:43;101042.06;;;6.35
71630;BMP280;59479;51.902;8.212;2023-02-01T07:42:08;101044.69;;;6.39
71630;BMP280;59479;51.902;8.212;2023-02-01T07:44:34;101067.19;;;6.42
71630;BMP280;59479;51.902;8.212;2023-02-01T07:46:59;101049.13;;;6.52
71630;BMP280;59479;51.902;8.212;2023-02-01T07:49:25;101072.34;;;6.48
71630;BMP280;59479;51.902;8.212;2023-02-01T07:51:50;101070.72;;;6.50
71630;BMP280;59479;51.902;8.212;2023-02-01T07:54:16;101070.91;;;6.58
71630;BMP280;59479;51.902;8.212;2023-02-01T07:56:41;101072.47;;;6.53
71630;BMP280;59479;51.902;8.212;2023-02-01T07:59:06;101068.25;;;6.52
71630;BMP280;59479;51.902;8.212;2023-02-01T08:01:33;101075.06;;;6.59
71630;BMP280;59479;51.902;8.212;2023-02-01T08:04:00;101075.69;;;6.49
71630;BMP280;59479;51.902;8.212;2023-02-01T08:06:27;101063.31;;;6.53
71630;BMP280;59479;51.902;8.212;2023-02-01T08:08:53;101061.84;;;6.61
71630;BMP280;59479;51.902;8.212;2023-02-01T08:11:20;101062.50;;;6.56
71630;BMP280;59479;51.902;8.212;2023-02-01T08:13:46;101065.00;;;6.54
71630;BMP280;59479;51.902;8.212;2023-02-01T08:16:14;101059.69;;;6.41
71630;BMP280;59479;51.902;8.212;2023-02-01T08:18:40;101070.81;;;6.53
71630;BMP280;59479;51.902;8.212;2023-02-01T08:21:07;101068.53;;;6.64
71630;BMP280;59479;51.902;8.212;2023-02-01T08:23:35;101071.09;;;6.67
71630;BMP280;59479;51.902;8.212;2023-02-01T08:28:39;101071.09;;;6.67
71630;BMP280;59479;51.902;8.212;2023-02-01T08:31:15;101070.19;;;6.63
71630;BMP280;59479;51.902;8.212;2023-02-01T08:33:42;101070.34;;;6.70
71630;BMP280;59479;51.902;8.212;2023-02-01T08:36:09;101076.09;;;6.67
71630;BMP280;59479;51.902;8.212;2023-02-01T08:38:39;101076.97;;;6.68
71630;BMP280;59479;51.902;8.212;2023-02-01T08:41:12;101071.03;;;6.64
71630;BMP280;59479;51.902;8.212;2023-02-01T08:43:38;101090.22;;;6.65
71630;BMP280;59479;51.902;8.212;2023-02-01T08:46:04;101090.06;;;6.59
71630;BMP280;59479;51.902;8.212;2023-02-01T08:48:30;101071.91;;;6.64
71630;BMP280;59479;51.902;8.212;2023-02-01T08:50:56;101083.75;;;6.72
71630;BMP280;59479;51.902;8.212;2023-02-01T08:53:21;101079.56;;;6.71
71630;BMP280;59479;51.902;8.212;2023-02-01T08:55:47;101096.91;;;6.67
71630;BMP280;59479;51.902;8.212;2023-02-01T08:58:13;101087.91;;;6.73
71630;BMP280;59479;51.902;8.212;2023-02-01T09:00:43;101079.75;;;6.80
71630;BMP280;59479;51.902;8.212;2023-02-01T09:03:10;101093.09;;;6.82
71630;BMP280;59479;51.902;8.212;2023-02-01T09:05:36;101074.06;;;6.86
71630;BMP280;59479;51.902;8.212;2023-02-01T09:08:01;101081.63;;;6.90
71630;BMP280;59479;51.902;8.212;2023-02-01T09:10:26;101075.59;;;6.81
71630;BMP280;59479;51.902;8.212;2023-02-01T09:12:52;101083.22;;;6.87
71630;BMP280;59479;51.902;8.212;2023-02-01T09:15:17;101084.81;;;6.83
71630;BMP280;59479;51.902;8.212;2023-02-01T09:17:48;101073.13;;;6.82
71630;BMP280;59479;51.902;8.212;2023-02-01T09:20:20;101071.66;;;6.92
71630;BMP280;59479;51.902;8.212;2023-02-01T09:22:55;101075.56;;;6.79
71630;BMP280;59479;51.902;8.212;2023-02-01T09:25:26;101073.44;;;6.97
71630;BMP280;59479;51.902;8.212;2023-02-01T09:27:52;101067.50;;;6.92
71630;BMP280;59479;51.902;8.212;2023-02-01T09:30:18;101056.66;;;6.90
71630;BMP280;59479;51.902;8.212;2023-02-01T09:32:46;101060.16;;;6.98
71630;BMP280;59479;51.902;8.212;2023-02-01T09:35:24;101046.09;;;7.03
71630;BMP280;59479;51.902;8.212;2023-02-01T09:37:57;101056.06;;;7.02
71630;BMP280;59479;51.902;8.212;2023-02-01T09:40:25;101052.63;;;6.97
71630;BMP280;59479;51.902;8.212;2023-02-01T09:43:34;101055.91;;;6.94
71630;BMP280;59479;51.902;8.212;2023-02-01T09:46:27;101056.78;;;6.96
71630;BMP280;59479;51.902;8.212;2023-02-01T09:48:54;101055.06;;;6.94
71630;BMP280;59479;51.902;8.212;2023-02-01T09:51:36;101055.09;;;6.95
71630;BMP280;59479;51.902;8.212;2023-02-01T09:54:40;101059.41;;;7.02
71630;BMP280;59479;51.902;8.212;2023-02-01T09:57:18;101052.50;;;6.92
71630;BMP280;59479;51.902;8.212;2023-02-01T09:59:54;101055.28;;;7.04
71630;BMP280;59479;51.902;8.212;2023-02-01T10:02:26;101044.56;;;7.10
71630;BMP280;59479;51.902;8.212;2023-02-01T10:04:59;101043.59;;;7.03
71630;BMP280;59479;51.902;8.212;2023-02-01T10:08:09;101031.13;;;7.05
71630;BMP280;59479;51.902;8.212;2023-02-01T10:10:49;101046.13;;;7.05
71630;BMP280;59479;51.902;8.212;2023-02-01T10:19:10;101029.72;;;7.17
71630;BMP280;59479;51.902;8.212;2023-02-01T10:21:57;101026.44;;;7.19
71630;BMP280;59479;51.902;8.212;2023-02-01T10:27:17;101023.91;;;7.18
71630;BMP280;59479;51.902;8.212;2023-02-01T10:29:51;101030.88;;;7.34
71630;BMP280;59479;51.902;8.212;2023-02-01T10:32:31;101030.59;;;7.19
71630;BMP280;59479;51.902;8.212;2023-02-01T10:34:59;101036.50;;;7.24
71630;BMP280;59479;51.902;8.212;2023-02-01T10:37:34;101029.28;;;7.36
71630;BMP280;59479;51.902;8.212;2023-02-01T10:42:49;101017.56;;;7.35
71630;BMP280;59479;51.902;8.212;2023-02-01T10:45:28;101020.09;;;7.36
71630;BMP280;59479;51.902;8.212;2023-02-01T10:47:55;101023.41;;;7.35
71630;BMP280;59479;51.902;8.212;2023-02-01T10:50:35;101027.34;;;7.23
71630;BMP280;59479;51.902;8.212;2023-02-01T10:53:18;101031.84;;;7.40
71630;BMP280;59479;51.902;8.212;2023-02-01T10:55:56;101027.56;;;7.35
71630;BMP280;59479;51.902;8.212;2023-02-01T10:58:46;101021.00;;;7.40
71630;BMP280;59479;51.902;8.212;2023-02-01T11:01:34;101021.06;;;7.43
71630;BMP280;59479;51.902;8.212;2023-02-01T11:04:02;101016.00;;;7.40
71630;BMP280;59479;51.902;8.212;2023-02-01T11:07:23;101002.78;;;7.47
71630;BMP280;59479;51.902;8.212;2023-02-01T11:09:59;101007.00;;;7.48
71630;BMP280;59479;51.902;8.212;2023-02-01T11:15:38;100989.47;;;7.48
71630;BMP280;59479;51.902;8.212;2023-02-01T11:19:06;100979.44;;;7.46
71630;BMP280;59479;51.902;8.212;2023-02-01T11:21:42;100983.88;;;7.62
71630;BMP280;59479;51.902;8.212;2023-02-01T11:24:36;100990.44;;;7.54
71630;BMP280;59479;51.902;8.212;2023-02-01T11:27:14;100986.78;;;7.39
71630;BMP280;59479;51.902;8.212;2023-02-01T11:29:52;100976.06;;;7.43
71630;BMP280;59479;51.902;8.212;2023-02-01T11:32:22;100977.72;;;7.44
71630;BMP280;59479;51.902;8.212;2023-02-01T11:35:02;100971.00;;;7.40
71630;BMP280;59479;51.902;8.212;2023-02-01T11:37:33;100961.94;;;7.46
71630;BMP280;59479;51.902;8.212;2023-02-01T11:40:03;100963.50;;;7.40
71630;BMP280;59479;51.902;8.212;2023-02-01T11:42:29;100964.31;;;7.40
71630;BMP280;59479;51.902;8.212;2023-02-01T11:45:20;100958.59;;;7.47
71630;BMP280;59479;51.902;8.212;2023-02-01T11:47:46;100947.91;;;7.53
71630;BMP280;59479;51.902;8.212;2023-02-01T11:50:45;100943.75;;;7.54
71630;BMP280;59479;51.902;8.212;2023-02-01T11:53:23;100947.78;;;7.47
71630;BMP280;59479;51.902;8.212;2023-02-01T12:04:10;100933.34;;;7.32
71630;BMP280;59479;51.902;8.212;2023-02-01T12:06:52;100925.88;;;7.34
71630;BMP280;59479;51.902;8.212;2023-02-01T12:09:41;100925.06;;;7.35
71630;BMP280;59479;51.902;8.212;2023-02-01T12:12:25;100908.22;;;7.25
71630;BMP280;59479;51.902;8.212;2023-02-01T12:15:24;100919.13;;;7.30
71630;BMP280;59479;51.902;8.212;2023-02-01T12:45:47;100903.69;;;7.05
71630;BMP280;59479;51.902;8.212;2023-02-01T12:49:12;100905.91;;;6.90
71630;BMP280;59479;51.902;8.212;2023-02-01T12:51:43;100897.69;;;6.97
71630;BMP280;59479;51.902;8.212;2023-02-01T12:57:05;100876.53;;;6.78
71630;BMP280;59479;51.902;8.212;2023-02-01T12:59:54;100887.34;;;6.79
71630;BMP280;59479;51.902;8.212;2023-02-01T13:02:35;100877.63;;;6.92
71630;BMP280;59479;51.902;8.212;2023-02-01T13:05:22;100875.75;;;6.81
71630;BMP280;59479;51.902;8.212;2023-02-01T13:08:04;100874.84;;;6.77
71630;BMP280;59479;51.902;8.212;2023-02-01T13:11:17;100869.81;;;6.74
71630;BMP280;59479;51.902;8.212;2023-02-01T13:17:44;100869.97;;;6.83
71630;BMP280;59479;51.902;8.212;2023-02-01T13:27:39;100865.75;;;6.81
71630;BMP280;59479;51.902;8.212;2023-02-01T13:31:10;100864.88;;;6.79
71630;BMP280;59479;51.902;8.212;2023-02-01T13:37:01;100859.97;;;6.83
71630;BMP280;59479;51.902;8.212;2023-02-01T13:42:22;100865.13;;;6.92
71630;BMP280;59479;51.902;8.212;2023-02-01T13:45:00;100872.63;;;6.91
71630;BMP280;59479;51.902;8.212;2023-02-01T13:47:34;100856.97;;;7.02
71630;BMP280;59479;51.902;8.212;2023-02-01T13:53:00;100850.19;;;6.95
71630;BMP280;59479;51.902;8.212;2023-02-01T13:55:31;100859.44;;;6.99
71630;BMP280;59479;51.902;8.212;2023-02-01T13:58:19;100842.00;;;7.04
71630;BMP280;59479;51.902;8.212;2023-02-01T14:00:47;100863.59;;;7.00
71630;BMP280;59479;51.902;8.212;2023-02-01T14:03:23;100848.63;;;7.00
71630;BMP280;59479;51.902;8.212;2023-02-01T14:06:17;100868.03;;;7.14
71630;BMP280;59479;51.902;8.212;2023-02-01T14:08:44;100856.44;;;7.18
71630;BMP280;59479;51.902;8.212;2023-02-01T14:19:40;100841.50;;;7.21
71630;BMP280;59479;51.902;8.212;2023-02-01T14:25:15;100823.94;;;7.18
71630;BMP280;59479;51.902;8.212;2023-02-01T14:27:41;100828.19;;;7.23
71630;BMP280;59479;51.902;8.212;2023-02-01T14:30:11;100834.13;;;7.30
71630;BMP280;59479;51.902;8.212;2023-02-01T14:32:42;100827.22;;;7.15
71630;BMP280;59479;51.902;8.212;2023-02-01T14:35:24;100853.91;;;7.16
71630;BMP280;59479;51.902;8.212;2023-02-01T14:37:53;100872.22;;;7.15
71630;BMP280;59479;51.902;8.212;2023-02-01T14:40:50;100854.75;;;7.17
71630;BMP280;59479;51.902;8.212;2023-02-01T14:47:08;100840.84;;;7.32
71630;BMP280;59479;51.902;8.212;2023-02-01T14:50:04;100804.94;;;7.29
71630;BMP280;59479;51.902;8.212;2023-02-01T14:53:43;100886.56;;;7.25
71630;BMP280;59479;51.902;8.212;2023-02-01T14:56:45;100912.94;;;7.10
71630;BMP280;59479;51.902;8.212;2023-02-01T14:59:32;100923.56;;;6.99
71630;BMP280;59479;51.902;8.212;2023-02-01T15:02:36;100908.91;;;6.72
71630;BMP280;59479;51.902;8.212;2023-02-01T15:05:32;100912.06;;;6.64
71630;BMP280;59479;51.902;8.212;2023-02-01T15:08:24;100909.91;;;6.41
71630;BMP280;59479;51.902;8.212;2023-02-01T15:11:17;100931.88;;;6.19
71630;BMP280;59479;51.902;8.212;2023-02-01T15:18:14;100920.84;;;6.46
71630;BMP280;59479;51.902;8.212;2023-02-01T15:20:57;100920.34;;;6.63
71630;BMP280;59479;51.902;8.212;2023-02-01T15:23:30;100909.31;;;6.54
71630;BMP280;59479;51.902;8.212;2023-02-01T15:25:55;100949.84;;;6.42
71630;BMP280;59479;51.902;8.212;2023-02-01T15:28:40;100925.63;;;6.37
71630;BMP280;59479;51.902;8.212;2023-02-01T15:31:30;100948.91;;;6.36
71630;BMP280;59479;51.902;8.212;2023-02-01T15:33:58;100929.84;;;6.39
71630;BMP280;59479;51.902;8.212;2023-02-01T15:36:27;100920.75;;;6.43
71630;BMP280;59479;51.902;8.212;2023-02-01T15:39:20;100930.81;;;6.46
71630;BMP280;59479;51.902;8.212;2023-02-01T15:42:13;100941.19;;;6.65
71630;BMP280;59479;51.902;8.212;2023-02-01T15:44:49;100940.25;;;6.60
71630;BMP280;59479;51.902;8.212;2023-02-01T15:47:32;100943.91;;;6.36
71630;BMP280;59479;51.902;8.212;2023-02-01T15:49:59;100951.25;;;6.30
71630;BMP280;59479;51.902;8.212;2023-02-01T15:52:35;100971.22;;;6.30
71630;BMP280;59479;51.902;8.212;2023-02-01T15:55:21;100982.22;;;6.38
71630;BMP280;59479;51.902;8.212;2023-02-01T15:57:54;100977.00;;;6.28
71630;BMP280;59479;51.902;8.212;2023-02-01T16:03:43;100962.13;;;6.32
71630;BMP280;59479;51.902;8.212;2023-02-01T16:06:32;100977.25;;;6.38
71630;BMP280;59479;51.902;8.212;2023-02-01T16:09:11;100987.31;;;6.41
71630;BMP280;59479;51.902;8.212;2023-02-01T16:11:55;100982.22;;;6.38
71630;BMP280;59479;51.902;8.212;2023-02-01T16:14:27;100992.22;;;6.38
71630;BMP280;59479;51.902;8.212;2023-02-01T16:16:56;100995.38;;;6.31
71630;BMP280;59479;51.902;8.212;2023-02-01T16:19:25;100982.13;;;6.33
71630;BMP280;59479;51.902;8.212;2023-02-01T16:22:31;100988.53;;;6.24
71630;BMP280;59479;51.902;8.212;2023-02-01T16:27:50;100989.44;;;6.26
71630;BMP280;59479;51.902;8.212;2023-02-01T16:30:22;101001.16;;;6.28
71630;BMP280;59479;51.902;8.212;2023-02-01T16:32:58;100994.25;;;6.19
71630;BMP280;59479;51.902;8.212;2023-02-01T16:35:39;101021.00;;;6.23
71630;BMP280;59479;51.902;8.212;2023-02-01T16:38:16;101027.69;;;6.25
71630;BMP280;59479;51.902;8.212;2023-02-01T16:40:54;101022.50;;;6.16
71630;BMP280;59479;51.902;8.212;2023-02-01T16:43:32;101023.22;;;6.12
71630;BMP280;59479;51.902;8.212;2023-02-01T16:46:04;100999.13;;;6.13
71630;BMP280;59479;51.902;8.212;2023-02-01T16:51:18;101024.53;;;6.32
71630;BMP280;59479;51.902;8.212;2023-02-01T16:53:50;101027.09;;;6.35
71630;BMP280;59479;51.902;8.212;2023-02-01T16:56:28;101014.56;;;6.33
71630;BMP280;59479;51.902;8.212;2023-02-01T16:59:05;101027.38;;;6.47
71630;BMP280;59479;51.902;8.212;2023-02-01T17:01:49;101032.28;;;6.44
71630;BMP280;59479;51.902;8.212;2023-02-01T17:04:21;101040.78;;;6.52
71630;BMP280;59479;51.902;8.212;2023-02-01T17:06:52;101032.34;;;6.47
71630;BMP280;59479;51.902;8.212;2023-02-01T17:09:17;101034.94;;;6.50
71630;BMP280;59479;51.902;8.212;2023-02-01T17:11:45;101024.00;;;6.45